createdAt,value
2023-05-10T00:02:23.955Z,10.00
2023-05-10T00:04:51.162Z,10.00
2023-05-10T00:07:19.035Z,10.00
2023-05-10T00:09:45.819Z,9.90
2023-05-10T00:12:12.688Z,9.90
2023-05-10T00:14:39.474Z,9.90
2023-05-10T00:17:06.318Z,9.90
2023-05-10T00:19:33.207Z,9.90
2023-05-10T00:22:00.010Z,9.80
2023-05-10T00:24:26.822Z,9.80
2023-05-10T00:26:53.591Z,9.80
2023-05-10T00:29:20.637Z,9.80
2023-05-10T00:31:48.160Z,9.70
2023-05-10T00:34:15.045Z,9.70
2023-05-10T00:36:41.893Z,9.60
2023-05-10T00:39:08.847Z,9.70
2023-05-10T00:41:35.644Z,9.70
2023-05-10T00:44:05.099Z,9.60
2023-05-10T00:46:32.612Z,9.60
2023-05-10T00:49:00.065Z,9.50
2023-05-10T00:51:27.162Z,9.50
2023-05-10T00:53:54.417Z,9.40
2023-05-10T00:56:23.992Z,9.40
2023-05-10T00:58:51.353Z,9.40
2023-05-10T01:01:18.507Z,9.40
2023-05-10T01:03:46.202Z,9.30
2023-05-10T01:06:13.341Z,9.40
2023-05-10T01:08:40.651Z,9.30
2023-05-10T01:11:07.738Z,9.40
2023-05-10T01:13:40.434Z,9.30
2023-05-10T01:16:07.937Z,9.30
2023-05-10T01:18:39.353Z,9.20
2023-05-10T01:21:09.051Z,9.20
2023-05-10T01:24:06.967Z,9.20
2023-05-10T01:26:53.641Z,9.10
2023-05-10T01:29:44.405Z,9.10
2023-05-10T01:32:20.577Z,9.00
2023-05-10T01:35:06.295Z,9.00
2023-05-10T01:37:45.166Z,9.10
2023-05-10T01:40:27.248Z,9.00
2023-05-10T01:43:00.360Z,9.00
2023-05-10T01:45:37.878Z,9.00
2023-05-10T01:48:11.004Z,8.90
2023-05-10T01:50:42.600Z,8.90
2023-05-10T01:53:12.411Z,9.00
2023-05-10T01:55:59.568Z,9.00
2023-05-10T01:58:30.637Z,9.00
2023-05-10T02:01:01.658Z,9.00
2023-05-10T02:03:30.176Z,8.90
2023-05-10T02:05:59.742Z,8.90
2023-05-10T02:08:28.173Z,8.90
2023-05-10T02:10:57.083Z,8.90
2023-05-10T02:13:27.047Z,8.90
2023-05-10T02:15:55.334Z,8.90
2023-05-10T02:18:24.814Z,8.90
2023-05-10T02:20:53.322Z,8.80
2023-05-10T02:23:21.134Z,8.80
2023-05-10T02:25:50.318Z,8.80
2023-05-10T02:28:19.260Z,8.90
2023-05-10T02:30:47.889Z,8.80
2023-05-10T02:33:15.462Z,8.70
2023-05-10T02:35:42.825Z,8.70
2023-05-10T02:38:10.812Z,8.60
2023-05-10T02:40:38.805Z,8.70
2023-05-10T02:43:07.311Z,8.70
2023-05-10T02:45:37.356Z,8.60
2023-05-10T02:48:04.526Z,8.50
2023-05-10T02:50:33.323Z,8.60
2023-05-10T02:53:20.106Z,8.50
2023-05-10T02:55:52.684Z,8.50
2023-05-10T02:58:22.282Z,8.40
2023-05-10T03:00:49.230Z,8.30
2023-05-10T03:03:16.057Z,8.20
2023-05-10T03:05:42.868Z,8.20
2023-05-10T03:08:10.258Z,8.20
2023-05-10T03:10:46.211Z,8.10
2023-05-10T03:13:31.398Z,8.10
2023-05-10T03:16:08.759Z,8.00
2023-05-10T03:18:45.420Z,8.00
2023-05-10T03:21:14.464Z,8.00
2023-05-10T03:23:53.095Z,8.00
2023-05-10T03:26:26.582Z,7.90
2023-05-10T03:29:00.474Z,7.90
2023-05-10T03:31:27.990Z,7.90
2023-05-10T03:33:55.198Z,8.00
2023-05-10T03:36:26.427Z,7.90
2023-05-10T03:38:55.827Z,7.90
2023-05-10T03:41:22.877Z,7.90
2023-05-10T03:43:49.684Z,8.00
2023-05-10T03:46:16.569Z,8.10
2023-05-10T03:48:43.853Z,8.10
2023-05-10T03:51:10.858Z,8.00
2023-05-10T03:53:38.309Z,8.10
2023-05-10T03:56:05.405Z,8.10
2023-05-10T03:58:32.184Z,8.20
2023-05-10T04:00:59.157Z,8.20
2023-05-10T04:03:27.225Z,8.30
2023-05-10T04:06:02.253Z,8.30
2023-05-10T04:08:29.920Z,8.40
2023-05-10T04:11:11.484Z,8.40
2023-05-10T04:13:39.040Z,8.50
2023-05-10T04:16:06.300Z,8.60
2023-05-10T04:18:33.120Z,8.60
2023-05-10T04:20:59.932Z,8.60
2023-05-10T04:23:27.914Z,8.70
2023-05-10T04:26:00.875Z,8.80
2023-05-10T04:28:28.180Z,8.80
2023-05-10T04:31:04.962Z,8.90
2023-05-10T04:33:32.563Z,8.90
2023-05-10T04:35:59.392Z,9.00
2023-05-10T04:38:26.647Z,9.00
2023-05-10T04:40:53.867Z,9.10
2023-05-10T04:43:21.227Z,9.20
2023-05-10T04:45:48.082Z,9.20
2023-05-10T04:48:15.053Z,9.40
2023-05-10T04:50:42.009Z,9.50
2023-05-10T04:53:09.006Z,9.50
2023-05-10T04:55:36.559Z,9.60
2023-05-10T04:58:03.807Z,9.70
2023-05-10T05:00:30.653Z,9.80
2023-05-10T05:02:57.489Z,9.90
2023-05-10T05:05:24.448Z,10.00
2023-05-10T05:07:51.601Z,10.10
2023-05-10T05:10:18.799Z,10.20
2023-05-10T05:12:45.854Z,10.30
2023-05-10T05:15:12.873Z,10.40
2023-05-10T05:17:39.782Z,10.50
2023-05-10T05:20:07.354Z,10.60
2023-05-10T05:22:34.109Z,10.70
2023-05-10T05:25:01.606Z,10.80
2023-05-10T05:27:28.852Z,10.90
2023-05-10T05:29:56.446Z,11.00
2023-05-10T05:32:24.410Z,11.10
2023-05-10T05:34:51.943Z,11.20
2023-05-10T05:37:22.505Z,11.30
2023-05-10T05:39:49.537Z,11.40
2023-05-10T05:42:18.590Z,11.60
2023-05-10T05:44:45.753Z,11.60
2023-05-10T05:47:12.684Z,11.70
2023-05-10T05:49:40.282Z,11.70
2023-05-10T05:52:07.229Z,11.80
2023-05-10T05:54:34.180Z,11.90
2023-05-10T05:57:01.782Z,11.90
2023-05-10T05:59:29.172Z,12.10
2023-05-10T06:01:56.048Z,12.20
2023-05-10T06:04:22.965Z,12.20
2023-05-10T06:06:49.918Z,12.30
2023-05-10T06:09:16.965Z,12.40
2023-05-10T06:11:43.835Z,12.40
2023-05-10T06:14:10.697Z,12.50
2023-05-10T06:16:37.772Z,12.50
2023-05-10T06:19:04.833Z,12.60
2023-05-10T06:21:31.698Z,12.70
2023-05-10T06:23:58.680Z,12.80
2023-05-10T06:26:25.836Z,12.90
2023-05-10T06:28:52.820Z,13.00
2023-05-10T06:31:19.736Z,13.00
2023-05-10T06:33:46.826Z,13.20
2023-05-10T06:36:14.326Z,13.30
2023-05-10T06:38:41.407Z,13.40
2023-05-10T06:41:08.240Z,13.50
2023-05-10T06:43:35.757Z,13.60
2023-05-10T06:46:02.771Z,13.60
2023-05-10T06:48:29.814Z,13.70
2023-05-10T06:50:56.751Z,13.90
2023-05-10T06:53:23.645Z,13.90
2023-05-10T06:55:50.753Z,14.00
2023-05-10T06:58:17.596Z,14.00
2023-05-10T07:00:46.302Z,14.00
2023-05-10T07:03:13.283Z,14.10
2023-05-10T07:05:40.185Z,14.10
2023-05-10T07:08:07.606Z,14.10
2023-05-10T07:10:35.330Z,14.10
2023-05-10T07:13:02.288Z,14.20
2023-05-10T07:15:29.578Z,14.20
2023-05-10T07:17:56.554Z,14.30
2023-05-10T07:20:23.512Z,14.30
2023-05-10T07:22:50.393Z,14.40
2023-05-10T07:25:17.394Z,14.40
2023-05-10T07:27:44.568Z,14.40
2023-05-10T07:30:11.962Z,14.50
2023-05-10T07:32:40.377Z,14.60
2023-05-10T07:35:07.861Z,14.70
2023-05-10T07:37:34.998Z,14.80
2023-05-10T07:40:02.067Z,15.00
2023-05-10T07:42:29.020Z,15.10
2023-05-10T07:44:55.861Z,15.20
2023-05-10T07:47:22.725Z,15.30
2023-05-10T07:49:49.775Z,15.40
2023-05-10T07:52:17.098Z,15.50
2023-05-10T07:54:43.886Z,15.60
2023-05-10T07:57:10.961Z,15.70
2023-05-10T07:59:37.849Z,15.70
2023-05-10T08:02:04.767Z,15.80
2023-05-10T08:04:31.726Z,15.80
2023-05-10T08:06:58.580Z,15.90
2023-05-10T08:09:25.622Z,15.90
2023-05-10T08:11:52.513Z,16.00
2023-05-10T08:14:19.371Z,16.10
2023-05-10T08:16:46.251Z,16.10
2023-05-10T08:19:13.090Z,16.20
2023-05-10T08:21:41.561Z,16.20
2023-05-10T08:24:08.728Z,16.30
2023-05-10T08:26:35.644Z,16.30
2023-05-10T08:29:02.491Z,16.30
2023-05-10T08:31:29.478Z,16.40
2023-05-10T08:33:56.262Z,16.50
2023-05-10T08:36:25.519Z,16.50
2023-05-10T08:38:53.219Z,16.70
2023-05-10T08:41:25.508Z,16.80
2023-05-10T08:43:54.492Z,16.90
2023-05-10T08:46:23.353Z,16.80
2023-05-10T08:48:52.524Z,16.90
2023-05-10T08:51:22.970Z,17.10
2023-05-10T08:53:50.207Z,17.20
2023-05-10T08:56:18.767Z,17.30
2023-05-10T08:58:45.855Z,17.30
2023-05-10T09:01:14.694Z,17.40
2023-05-10T09:03:41.797Z,17.50
2023-05-10T09:06:08.950Z,17.70
2023-05-10T09:08:37.500Z,17.70
2023-05-10T09:11:04.561Z,17.70
2023-05-10T09:13:32.108Z,17.90
2023-05-10T09:16:06.937Z,17.90
2023-05-10T09:18:41.290Z,17.90
2023-05-10T09:21:08.678Z,17.80
2023-05-10T09:23:35.566Z,17.90
2023-05-10T09:26:06.691Z,18.00
2023-05-10T09:28:34.862Z,18.10
2023-05-10T09:31:01.738Z,18.10
2023-05-10T09:33:28.601Z,18.10
2023-05-10T09:35:56.155Z,18.20
2023-05-10T09:38:24.278Z,18.30
2023-05-10T09:41:04.059Z,18.30
2023-05-10T09:43:38.980Z,18.50
2023-05-10T09:46:11.228Z,18.50
2023-05-10T09:48:48.683Z,18.60
2023-05-10T09:51:23.446Z,18.80
2023-05-10T09:54:13.636Z,18.90
2023-05-10T09:56:41.603Z,19.00
2023-05-10T09:59:10.144Z,19.10
2023-05-10T10:01:37.830Z,19.30
2023-05-10T10:04:09.721Z,19.30
2023-05-10T10:06:40.667Z,19.30
2023-05-10T10:09:08.640Z,19.30
2023-05-10T10:11:36.486Z,19.30
2023-05-10T10:14:03.488Z,19.40
2023-05-10T10:16:31.733Z,19.60
2023-05-10T10:18:59.412Z,19.70
2023-05-10T10:21:26.663Z,19.70
2023-05-10T10:23:54.068Z,19.80
2023-05-10T10:26:22.399Z,19.80
2023-05-10T10:28:52.880Z,19.90
2023-05-10T10:31:31.559Z,19.90
2023-05-10T10:34:10.665Z,20.00
2023-05-10T10:36:47.334Z,20.20
2023-05-10T10:39:15.283Z,20.20
2023-05-10T10:41:53.403Z,20.40
2023-05-10T10:44:26.142Z,20.40
2023-05-10T10:47:30.842Z,20.50
2023-05-10T10:50:01.084Z,20.50
2023-05-10T10:52:33.877Z,20.70
2023-05-10T10:55:07.713Z,20.80
2023-05-10T10:58:03.673Z,21.00
2023-05-10T11:00:45.471Z,21.10
2023-05-10T11:03:15.749Z,21.20
2023-05-10T11:05:47.179Z,21.20
2023-05-10T11:08:29.055Z,21.30
2023-05-10T11:11:03.169Z,21.30
2023-05-10T11:13:32.734Z,21.50
2023-05-10T11:16:11.093Z,21.70
2023-05-10T11:18:38.757Z,21.80
2023-05-10T11:21:10.204Z,22.00
2023-05-10T11:23:50.873Z,22.20
2023-05-10T11:26:18.005Z,22.20
2023-05-10T11:28:46.223Z,22.40
2023-05-10T11:31:20.378Z,22.40
2023-05-10T11:33:58.290Z,22.40
2023-05-10T11:36:28.349Z,22.60
2023-05-10T11:38:57.149Z,22.70
2023-05-10T11:41:25.492Z,22.90
2023-05-10T11:43:54.721Z,22.90
2023-05-10T11:46:24.349Z,23.10
2023-05-10T11:48:54.282Z,23.30
2023-05-10T11:51:22.907Z,23.40
2023-05-10T11:53:52.281Z,23.70
2023-05-10T11:56:19.424Z,24.00
2023-05-10T11:58:47.979Z,24.20
2023-05-10T12:01:15.158Z,24.70
2023-05-10T12:03:42.318Z,25.30
2023-05-10T12:06:09.338Z,25.90
2023-05-10T12:08:36.193Z,26.60
2023-05-10T12:11:11.363Z,27.40
2023-05-10T12:13:43.218Z,28.00
2023-05-10T12:16:24.652Z,28.70
2023-05-10T12:18:57.262Z,29.10
2023-05-10T12:21:24.921Z,29.50
2023-05-10T12:24:03.825Z,29.60
2023-05-10T12:26:30.851Z,30.30
2023-05-10T12:29:14.107Z,29.90
2023-05-10T12:31:55.282Z,30.10
2023-05-10T12:34:37.077Z,30.30
2023-05-10T12:37:04.706Z,31.00
2023-05-10T12:39:45.216Z,30.80
2023-05-10T12:42:12.862Z,29.80
2023-05-10T12:44:40.100Z,30.10
2023-05-10T12:47:07.126Z,30.30
2023-05-10T12:49:34.798Z,30.10
2023-05-10T12:52:01.618Z,30.00
2023-05-10T12:54:28.828Z,29.90
2023-05-10T12:56:55.771Z,29.00
2023-05-10T12:59:23.652Z,28.50
2023-05-10T13:01:50.495Z,28.70
2023-05-10T13:04:17.340Z,28.60
2023-05-10T13:06:44.343Z,29.40
2023-05-10T13:09:11.333Z,30.60
2023-05-10T13:11:38.471Z,31.70
2023-05-10T13:14:05.317Z,31.30
2023-05-10T13:16:32.477Z,30.50
2023-05-10T13:18:59.572Z,30.70
2023-05-10T13:21:26.774Z,30.20
2023-05-10T13:23:54.320Z,30.30
2023-05-10T13:26:21.316Z,31.10
2023-05-10T13:28:49.958Z,30.80
2023-05-10T13:31:17.043Z,31.70
2023-05-10T13:33:43.965Z,32.10
2023-05-10T13:36:10.824Z,32.30
2023-05-10T13:38:38.356Z,31.70
2023-05-10T13:41:05.509Z,30.30
2023-05-10T13:43:32.410Z,29.50
2023-05-10T13:45:59.327Z,29.20
2023-05-10T13:48:28.034Z,28.50
2023-05-10T13:50:54.992Z,27.50
2023-05-10T13:53:22.062Z,27.30
2023-05-10T13:55:50.100Z,27.70
2023-05-10T13:58:16.863Z,27.40
2023-05-10T14:00:43.779Z,27.00
2023-05-10T14:03:12.108Z,27.00
2023-05-10T14:05:39.448Z,26.90
2023-05-10T14:08:06.358Z,26.70
2023-05-10T14:10:33.255Z,26.60
2023-05-10T14:13:00.244Z,26.30
2023-05-10T14:15:27.395Z,26.10
2023-05-10T14:17:54.354Z,26.60
2023-05-10T14:20:21.401Z,26.90
2023-05-10T14:22:48.380Z,27.20
2023-05-10T14:25:16.261Z,27.00
2023-05-10T14:27:43.563Z,26.90
2023-05-10T14:30:11.060Z,26.50
2023-05-10T14:32:38.135Z,25.90
2023-05-10T14:35:06.893Z,25.50
2023-05-10T14:37:33.996Z,25.30
2023-05-10T14:40:00.904Z,25.10
2023-05-10T14:42:27.823Z,25.00
2023-05-10T14:44:54.875Z,24.70
2023-05-10T14:47:21.884Z,24.70
2023-05-10T14:49:48.940Z,24.50
2023-05-10T14:52:15.894Z,24.20
2023-05-10T14:54:42.830Z,24.10
2023-05-10T14:57:10.214Z,24.00
2023-05-10T14:59:40.047Z,23.80
2023-05-10T15:02:09.216Z,23.80
2023-05-10T15:04:39.675Z,23.80
2023-05-10T15:07:06.999Z,24.00
2023-05-10T15:09:33.983Z,24.20
2023-05-10T15:12:01.510Z,24.50
2023-05-10T15:14:28.659Z,25.30
2023-05-10T15:16:56.051Z,25.90
2023-05-10T15:19:22.951Z,26.20
2023-05-10T15:21:49.940Z,25.40
2023-05-10T15:24:17.077Z,24.80
2023-05-10T15:26:44.618Z,24.20
2023-05-10T15:29:11.518Z,23.90
2023-05-10T15:31:38.337Z,23.70
2023-05-10T15:34:05.219Z,23.30
2023-05-10T15:36:33.092Z,22.70
2023-05-10T15:38:59.846Z,22.60
2023-05-10T15:41:26.683Z,22.50
2023-05-10T15:43:54.801Z,22.40
2023-05-10T15:46:21.675Z,22.30
2023-05-10T15:48:48.567Z,22.10
2023-05-10T15:51:15.822Z,21.90
2023-05-10T15:53:52.843Z,21.60
2023-05-10T15:56:27.663Z,21.50
2023-05-10T15:58:54.671Z,21.50
2023-05-10T16:01:21.786Z,21.60
2023-05-10T16:03:48.947Z,21.70
2023-05-10T16:06:15.974Z,21.90
2023-05-10T16:08:42.939Z,22.20
2023-05-10T16:11:09.723Z,22.40
2023-05-10T16:13:39.065Z,22.40
2023-05-10T16:16:06.680Z,22.10
2023-05-10T16:18:33.680Z,21.90
2023-05-10T16:21:01.758Z,21.60
2023-05-10T16:23:28.944Z,21.60
2023-05-10T16:25:55.928Z,21.40
2023-05-10T16:28:22.796Z,21.30
2023-05-10T16:30:49.761Z,21.10
2023-05-10T16:33:16.898Z,20.80
2023-05-10T16:35:43.999Z,20.80
2023-05-10T16:38:11.349Z,20.70
2023-05-10T16:40:38.218Z,20.50
2023-05-10T16:43:05.095Z,20.40
2023-05-10T16:45:32.669Z,20.20
2023-05-10T16:47:59.751Z,20.10
2023-05-10T16:50:26.639Z,19.90
2023-05-10T16:52:53.535Z,19.90
2023-05-10T16:55:20.924Z,20.10
2023-05-10T16:57:47.904Z,20.30
2023-05-10T17:00:15.524Z,20.20
2023-05-10T17:02:42.575Z,20.10
2023-05-10T17:05:09.891Z,20.00
2023-05-10T17:07:36.842Z,19.90
2023-05-10T17:10:03.885Z,19.80
2023-05-10T17:12:30.804Z,19.80
2023-05-10T17:14:58.650Z,19.70
2023-05-10T17:17:25.541Z,19.70
2023-05-10T17:19:52.659Z,20.00
2023-05-10T17:24:46.543Z,19.90
2023-05-10T17:27:14.542Z,19.90
2023-05-10T17:29:41.290Z,19.90
2023-05-10T17:32:10.949Z,19.80
2023-05-10T17:34:38.713Z,19.80
2023-05-10T17:37:05.571Z,19.70
2023-05-10T17:39:33.917Z,19.60
2023-05-10T17:42:00.787Z,19.50
2023-05-10T17:44:27.754Z,19.40
2023-05-10T17:46:55.109Z,19.30
2023-05-10T17:49:21.910Z,19.20
2023-05-10T17:51:48.807Z,19.00
2023-05-10T17:54:15.579Z,19.00
2023-05-10T17:56:42.833Z,18.90
2023-05-10T17:59:09.671Z,18.80
2023-05-10T18:01:36.696Z,18.80
2023-05-10T18:04:04.625Z,18.70
2023-05-10T18:06:35.527Z,18.60
2023-05-10T18:09:02.572Z,18.50
2023-05-10T18:11:29.404Z,18.40
2023-05-10T18:13:56.469Z,18.30
2023-05-10T18:16:26.361Z,18.20
2023-05-10T18:18:53.218Z,18.10
2023-05-10T18:21:20.363Z,17.90
2023-05-10T18:23:47.287Z,17.90
2023-05-10T18:26:14.682Z,17.80
2023-05-10T18:28:42.249Z,17.60
2023-05-10T18:31:09.271Z,17.50
2023-05-10T18:33:36.259Z,17.40
2023-05-10T18:36:04.091Z,17.30
2023-05-10T18:38:31.263Z,17.20
2023-05-10T18:41:02.902Z,17.10
2023-05-10T18:43:29.933Z,17.10
2023-05-10T18:45:57.190Z,16.90
2023-05-10T18:48:24.169Z,16.80
2023-05-10T18:50:51.022Z,16.60
2023-05-10T18:53:17.904Z,16.50
2023-05-10T18:55:44.917Z,16.40
2023-05-10T18:58:13.453Z,16.30
2023-05-10T19:00:40.404Z,16.20
2023-05-10T19:03:07.404Z,16.10
2023-05-10T19:05:34.516Z,16.10
2023-05-10T19:08:01.305Z,16.00
2023-05-10T19:10:28.226Z,15.90
2023-05-10T19:12:55.636Z,15.80
2023-05-10T19:15:22.669Z,15.80
2023-05-10T19:17:50.401Z,15.80
2023-05-10T19:20:17.308Z,15.80
2023-05-10T19:23:02.300Z,15.80
2023-05-10T19:25:33.476Z,15.80
2023-05-10T19:28:00.410Z,15.80
2023-05-10T19:30:28.812Z,15.80
2023-05-10T19:32:56.258Z,15.80
2023-05-10T19:35:23.913Z,15.80
2023-05-10T19:37:51.842Z,15.80
2023-05-10T19:40:18.733Z,15.90
2023-05-10T19:42:45.730Z,15.90
2023-05-10T19:45:12.889Z,15.90
2023-05-10T19:47:41.827Z,15.80
2023-05-10T19:50:09.111Z,15.80
2023-05-10T19:52:36.054Z,15.80
2023-05-10T19:55:03.044Z,15.90
2023-05-10T19:57:30.026Z,15.80
2023-05-10T19:59:56.913Z,15.70
2023-05-10T20:02:23.971Z,15.70
2023-05-10T20:04:51.261Z,15.70
2023-05-10T20:07:18.404Z,15.70
2023-05-10T20:09:45.630Z,15.70
2023-05-10T20:12:12.742Z,15.70
2023-05-10T20:14:39.704Z,15.70
2023-05-10T20:17:06.747Z,15.80
2023-05-10T20:19:33.746Z,15.70
2023-05-10T20:22:00.766Z,15.70
2023-05-10T20:24:27.896Z,15.70
2023-05-10T20:26:54.677Z,15.70
2023-05-10T20:29:21.601Z,15.70
2023-05-10T20:31:48.533Z,15.70
2023-05-10T20:34:15.768Z,15.60
2023-05-10T20:36:43.106Z,15.70
2023-05-10T20:39:10.367Z,15.60
2023-05-10T20:41:37.506Z,15.60
2023-05-10T20:44:05.818Z,15.50
2023-05-10T20:46:33.629Z,15.50
2023-05-10T20:49:00.864Z,15.40
2023-05-10T20:51:30.302Z,15.40
2023-05-10T20:53:57.783Z,15.30
2023-05-10T20:56:24.790Z,15.30
2023-05-10T20:58:51.894Z,15.30
2023-05-10T21:01:18.905Z,15.30
2023-05-10T21:03:45.729Z,15.20
2023-05-10T21:06:12.580Z,15.20
2023-05-10T21:08:39.420Z,15.20
2023-05-10T21:11:06.256Z,15.10
2023-05-10T21:13:33.341Z,15.10
2023-05-10T21:16:00.420Z,15.10
2023-05-10T21:18:27.561Z,15.10
2023-05-10T21:20:54.519Z,15.10
2023-05-10T21:23:21.401Z,15.10
2023-05-10T21:25:48.348Z,15.00
2023-05-10T21:28:15.190Z,15.00
2023-05-10T21:30:42.009Z,15.00
2023-05-10T21:33:09.037Z,14.90
2023-05-10T21:35:39.134Z,14.90
2023-05-10T21:38:06.019Z,14.90
2023-05-10T21:40:32.950Z,15.00
2023-05-10T21:43:00.052Z,14.90
2023-05-10T21:45:27.301Z,14.80
2023-05-10T21:47:54.647Z,14.80
2023-05-10T21:50:21.908Z,14.80
2023-05-10T21:52:48.828Z,14.70
2023-05-10T21:55:16.728Z,14.70
2023-05-10T21:57:44.892Z,14.70
2023-05-10T22:00:11.787Z,14.70
2023-05-10T22:02:39.980Z,14.70
2023-05-10T22:05:07.075Z,14.70
2023-05-10T22:07:34.602Z,14.70
2023-05-10T22:10:01.528Z,14.70
2023-05-10T22:12:28.531Z,14.70
2023-05-10T22:15:09.409Z,14.60
2023-05-10T22:17:40.618Z,14.60
2023-05-10T22:20:09.193Z,14.60
2023-05-10T22:22:36.708Z,14.60
2023-05-10T22:25:05.550Z,14.50
2023-05-10T22:27:32.589Z,14.50
2023-05-10T22:29:59.436Z,14.50
2023-05-10T22:32:26.264Z,14.40
2023-05-10T22:34:53.134Z,14.40
2023-05-10T22:37:20.141Z,14.30
2023-05-10T22:39:47.153Z,14.30
2023-05-10T22:42:14.059Z,14.30
2023-05-10T22:44:40.841Z,14.20
2023-05-10T22:47:08.893Z,14.20
2023-05-10T22:49:35.728Z,14.20
2023-05-10T22:52:02.789Z,14.20
2023-05-10T22:54:29.672Z,14.10
2023-05-10T22:56:56.823Z,14.10
2023-05-10T22:59:23.916Z,14.00
2023-05-10T23:01:50.984Z,13.90
2023-05-10T23:04:17.969Z,13.90
2023-05-10T23:06:45.829Z,13.80
2023-05-10T23:09:12.902Z,13.70
2023-05-10T23:11:39.727Z,13.80
2023-05-10T23:14:06.609Z,13.70
2023-05-10T23:16:33.424Z,13.70
2023-05-10T23:19:00.319Z,13.60
2023-05-10T23:21:28.290Z,13.60
2023-05-10T23:23:56.334Z,13.50
2023-05-10T23:26:23.439Z,13.50
2023-05-10T23:28:50.489Z,13.40
2023-05-10T23:31:17.402Z,13.40
2023-05-10T23:33:44.201Z,13.30
2023-05-10T23:36:11.081Z,13.30
2023-05-10T23:38:39.195Z,13.30
2023-05-10T23:41:06.207Z,13.20
2023-05-10T23:43:33.119Z,13.20
2023-05-10T23:45:59.996Z,13.10
2023-05-10T23:48:27.027Z,12.90
2023-05-10T23:50:53.900Z,12.80
2023-05-10T23:53:21.002Z,12.70
2023-05-10T23:55:47.952Z,12.60
2023-05-10T23:58:15.033Z,12.50
